Corvallis, OR (97330)

6:11 AM PST on January 31, 2015 (GMT -0800)
NW Corvallis | Change Station
CLOSE
Current Station
Personal Weather Station
Location: Corvallis, OR
Elevation: 400 ft
Nearby Weather Stations

Elev 400 ft 44.59 °N, 123.29 °W | Updated 3 minutes ago

Overcast
Overcast
35.0 °F
Feels Like 35 °F
N
0.0
Wind Variable Wind from ENE
Gusts 3.0 mph

Today
High -- | Low -- °F
--% Chance of Precip.
Yesterday
High -- | Low -- °F
Precip. -- in
7:33 AM 5:20 PM
Waxing Gibbous, 90% visible
Pressure 30.22 in
Visibility 0.2 miles
Clouds Overcast 200 ft
Windchill 35 °F
Dew Point 35 °F
Humidity 99%
Rainfall 0.00 in
Snow Depth Not available.
UV 0 out of 12
Pollen 3.60 out of 12
Air Quality Not available.
Flu Activity Not available.
METAR KCVO 311355Z AUTO 00000KT 1/4SM OVC002 03/01 A3022 RMK AO1

More Conditions Fewer Conditions

Pressure 30.22 in
Visibility 0.2 miles
Clouds Overcast 200 ft
Windchill 35 °F
Dew Point 35 °F
Humidity 99%
Rainfall 0.00 in
Snow Depth Not available.
UV 0 out of 12
Pollen 3.60 out of 12
Air Quality Not available.
Flu Activity Not available.
METAR KCVO 311355Z AUTO 00000KT 1/4SM OVC002 03/01 A3022 RMK AO1

More Conditions Fewer Conditions

10-Day Weather Forecast

Almanac

Astronomy

Jan. 31, 2015 Rise Set
Actual Time
Civil Twilight
Nautical Twilight
Astronomical Twilight
Moon
Length of Visible Light
Length of Day
Tomorrow will be .
, % of the Moon is Illuminated

Today's Extremes

State Highs State Lows

Community

WunderPhotos

Upload Photos

1,792,058 photos uploaded!

WunderBlogs® & News

Nearby

Air Quality

  Air Quality AQ Index Pollutant
Not available.

Snow Depth

Station Depth Elevation

Earthquake Activity

City Distance Mag. Time & Date
Minimum magnitude displayed is 2.5.

Coastal Water Temperatures

Place Temperature

Nearby Weather Stations